Time;durP1;ratioP1;P1;durP2;ratioP2;P2;SDS_P1;SDS_P2;PMS_P1;PMS_P2;Temp;Humidity;BMP_temperature;BMP_pressure;BME280_temperature;BME280_humidity;BME280_pressure;Samples;Min_cycle;Max_cycle;Signal;HPM_P1;HPM_P2
2022/12/13 00:01:13;;;;;;;68.27;28.80;;;;;;;4.43;55.41;101388.50;5071985;28;20048;-74
2022/12/13 00:03:38;;;;;;;73.60;30.33;;;;;;;4.39;55.56;101384.50;5061163;28;20061;-75
2022/12/13 00:06:07;;;;;;;80.57;31.03;;;;;;;4.25;55.53;101387.03;5071658;28;20115;-72
2022/12/13 00:08:33;;;;;;;65.40;28.60;;;;;;;4.30;55.99;101380.22;5064367;28;20037;-73
2022/12/13 00:11:00;;;;;;;57.17;26.93;;;;;;;4.31;55.44;101379.22;5069937;28;20500;-74
2022/12/13 00:13:26;;;;;;;51.73;25.33;;;;;;;4.30;55.94;101376.75;5071040;28;20043;-74
2022/12/13 00:15:58;;;;;;;53.87;24.90;;;;;;;4.33;55.82;101382.53;5071596;28;20032;-73
2022/12/13 00:18:24;;;;;;;55.80;25.17;;;;;;;4.32;55.64;101374.75;5067140;28;20036;-73
2022/12/13 00:20:50;;;;;;;55.10;24.07;;;;;;;4.19;55.65;101369.94;5071187;28;20073;-75
2022/12/13 00:23:15;;;;;;;48.93;25.20;;;;;;;4.22;55.32;101374.94;5071353;28;20087;-74
2022/12/13 00:25:42;;;;;;;45.70;23.27;;;;;;;4.14;55.32;101377.63;5071411;28;20045;-74
2022/12/13 00:28:07;;;;;;;53.93;25.90;;;;;;;4.13;55.27;101373.28;5071695;28;20051;-73
2022/12/13 00:30:33;;;;;;;46.10;22.93;;;;;;;4.07;55.34;101375.81;5069017;28;20123;-74
2022/12/13 00:32:59;;;;;;;46.13;23.50;;;;;;;4.03;55.66;101372.66;5068486;28;20040;-74
2022/12/13 00:35:24;;;;;;;47.30;24.40;;;;;;;4.09;55.66;101377.28;5071524;28;20123;-73
2022/12/13 00:37:49;;;;;;;48.23;24.87;;;;;;;4.00;56.03;101373.00;5071627;28;20036;-74
2022/12/13 00:40:15;;;;;;;63.20;27.73;;;;;;;4.10;55.71;101381.63;5061817;28;20033;-73
2022/12/13 00:42:40;;;;;;;44.97;23.17;;;;;;;4.10;55.78;101372.81;5055971;28;20028;-72
2022/12/13 00:45:06;;;;;;;50.07;25.37;;;;;;;3.98;55.93;101369.69;5071735;28;20052;-73
2022/12/13 00:47:31;;;;;;;46.43;24.27;;;;;;;4.08;55.96;101370.31;5071473;28;20032;-74
2022/12/13 00:49:57;;;;;;;45.90;23.00;;;;;;;4.02;54.98;101357.69;5071890;28;20571;-76
2022/12/13 00:52:22;;;;;;;50.97;24.50;;;;;;;3.85;55.76;101355.25;5071440;28;20041;-76
2022/12/13 00:54:47;;;;;;;53.27;23.10;;;;;;;3.97;55.81;101359.22;5072317;28;20025;-74
2022/12/13 00:57:13;;;;;;;45.97;23.57;;;;;;;3.96;55.45;101357.53;5070221;28;20116;-73
2022/12/13 00:59:38;;;;;;;47.80;24.70;;;;;;;3.90;55.70;101344.94;5071818;28;20056;-75
2022/12/13 01:02:04;;;;;;;51.37;24.03;;;;;;;3.77;56.59;101341.97;5071498;28;20056;-73
2022/12/13 01:04:29;;;;;;;52.03;22.87;;;;;;;3.87;55.84;101343.44;5071165;28;20028;-74
2022/12/13 01:06:55;;;;;;;50.93;24.40;;;;;;;3.79;55.77;101340.81;5056317;28;20104;-73
2022/12/13 01:09:26;;;;;;;50.40;25.63;;;;;;;3.75;56.41;101347.47;5051129;28;20366;-76
2022/12/13 01:12:02;;;;;;;56.42;24.27;;;;;;;3.80;55.61;101344.28;5051449;28;20041;-73
2022/12/13 01:14:28;;;;;;;56.97;25.30;;;;;;;3.77;55.89;101350.78;5051067;28;20356;-72
2022/12/13 01:16:56;;;;;;;45.77;22.20;;;;;;;3.75;55.57;101347.47;5050150;28;20037;-75
2022/12/13 01:19:26;;;;;;;51.70;22.77;;;;;;;3.73;55.51;101344.16;5052272;28;20112;-73
2022/12/13 01:21:55;;;;;;;53.97;24.43;;;;;;;3.76;55.48;101342.97;5052680;28;20040;-73
2022/12/13 01:24:23;;;;;;;58.10;23.97;;;;;;;3.65;55.35;101335.34;5054369;28;20087;-73
2022/12/13 01:26:49;;;;;;;53.30;23.77;;;;;;;3.76;55.40;101348.28;5038048;28;20132;-73
2022/12/13 01:29:16;;;;;;;50.17;22.90;;;;;;;3.53;56.16;101342.84;5035389;28;20053;-73
2022/12/13 01:31:41;;;;;;;47.73;23.10;;;;;;;3.51;55.59;101344.81;5049301;28;20488;-74
2022/12/13 01:34:11;;;;;;;49.63;22.73;;;;;;;3.61;55.51;101347.31;5056002;28;20033;-73
2022/12/13 01:36:39;;;;;;;45.83;23.35;;;;;;;3.41;56.54;101350.31;5055538;28;20408;-72
2022/12/13 01:39:04;;;;;;;49.33;24.10;;;;;;;3.47;56.03;101360.28;5055534;28;20423;-74
2022/12/13 01:41:32;;;;;;;43.13;22.60;;;;;;;3.58;55.56;101355.63;5055771;28;20063;-73
2022/12/13 01:44:03;;;;;;;52.70;24.50;;;;;;;3.53;55.27;101354.31;5055129;28;20059;-73
2022/12/13 01:46:33;;;;;;;49.60;22.00;;;;;;;3.44;55.64;101355.28;5055506;28;20040;-73
2022/12/13 01:49:04;;;;;;;52.13;22.00;;;;;;;3.24;56.32;101345.16;5055809;28;20024;-74
2022/12/13 01:51:35;;;;;;;49.22;23.92;;;;;;;3.33;56.52;101352.13;5055099;28;20037;-73
2022/12/13 01:54:02;;;;;;;44.25;22.33;;;;;;;3.36;56.27;101351.81;5055000;28;20047;-73
2022/12/13 01:56:35;;;;;;;47.40;22.70;;;;;;;3.43;55.80;101352.78;5055001;28;20037;-73
2022/12/13 01:59:02;;;;;;;53.37;23.63;;;;;;;3.37;55.22;101353.47;5054859;28;20055;-73
2022/12/13 02:01:29;;;;;;;50.27;22.53;;;;;;;3.35;55.31;101352.78;5054538;28;20475;-74
2022/12/13 02:03:54;;;;;;;41.80;22.57;;;;;;;3.34;55.39;101351.16;5054996;28;20017;-72
2022/12/13 02:06:38;;;;;;;48.30;22.73;;;;;;;3.44;55.21;101357.94;5054252;28;20048;-74
2022/12/13 02:09:05;;;;;;;45.77;21.03;;;;;;;3.23;56.14;101348.81;5053942;28;20052;-73
2022/12/13 02:11:34;;;;;;;41.70;21.97;;;;;;;3.21;56.42;101350.78;5054084;28;20587;-73
2022/12/13 02:13:59;;;;;;;44.43;21.63;;;;;;;3.17;55.50;101349.47;5054576;28;20037;-73
2022/12/13 02:16:43;;;;;;;50.57;23.13;;;;;;;3.32;54.97;101350.47;5036488;28;20062;-72
2022/12/13 02:19:14;;;;;;;44.47;21.50;;;;;;;3.25;55.48;101346.81;5055211;28;20524;-72
2022/12/13 02:21:51;;;;;;;;;;;;;;;3.33;55.46;101347.66;5055061;28;20082;-73
2022/12/13 02:24:39;;;;;;;37.87;17.37;;;;;;;3.18;55.80;101340.50;5054234;28;19923;-74
2022/12/13 02:27:24;;;;;;;47.33;20.03;;;;;;;3.20;55.29;101342.03;5072103;28;20044;-73
2022/12/13 02:30:23;;;;;;;47.53;21.20;;;;;;;3.08;55.41;101342.50;5074037;28;20037;-76
2022/12/13 02:33:08;;;;;;;53.17;19.87;;;;;;;3.01;55.38;101346.78;5054542;28;20033;-73
2022/12/13 02:35:52;;;;;;;45.73;19.90;;;;;;;3.20;55.24;101344.66;5053515;28;20103;-74
2022/12/13 02:38:32;;;;;;;45.87;19.80;;;;;;;3.03;55.38;101339.47;5052770;28;20033;-74
2022/12/13 02:41:15;;;;;;;41.20;18.40;;;;;;;3.00;55.43;101339.81;5070271;28;20523;-72
2022/12/13 02:43:55;;;;;;;35.13;18.57;;;;;;;2.47;57.14;101341.03;5073994;28;20086;-73
2022/12/13 02:46:26;;;;;;;42.30;20.43;;;;;;;2.52;57.42;101332.56;5072788;28;20461;-72
2022/12/13 02:48:55;;;;;;;37.77;20.73;;;;;;;2.55;57.00;101340.22;5074538;28;20025;-73
2022/12/13 02:51:21;;;;;;;40.13;19.03;;;;;;;2.53;56.95;101340.41;5074272;28;20048;-74
2022/12/13 02:53:47;;;;;;;33.13;18.43;;;;;;;2.40;57.45;101333.84;5073714;28;20028;-72
2022/12/13 02:56:13;;;;;;;43.10;19.67;;;;;;;2.52;56.81;101341.38;5074226;28;20570;-73
2022/12/13 02:58:43;;;;;;;42.27;19.43;;;;;;;2.44;57.25;101341.34;5074038;28;20040;-72
2022/12/13 03:01:37;;;;;;;36.00;19.05;;;;;;;2.44;57.22;101337.84;5074718;28;20033;-74
2022/12/13 03:06:28;;;;;;;39.67;18.27;;;;;;;2.43;56.77;101338.84;5074429;28;20040;-74
2022/12/13 03:07:41;;;;;;;45.03;18.47;;;;;;;2.37;57.05;101329.72;5073596;28;20480;-73
2022/12/13 03:10:26;;;;;;;34.53;18.87;;;;;;;2.34;57.26;101334.53;5074058;28;20119;-73
2022/12/13 03:13:39;;;;;;;39.67;18.30;;;;;;;2.28;57.58;101328.03;5073998;28;20066;-73
2022/12/13 03:16:33;;;;;;;30.53;15.60;;;;;;;2.26;57.90;101329.19;5074279;28;20060;-73
2022/12/13 03:19:01;;;;;;;38.80;18.53;;;;;;;2.44;57.42;101321.94;5053438;28;20051;-73
2022/12/13 03:21:27;;;;;;;36.43;17.90;;;;;;;2.39;58.07;101329.56;5052386;28;20513;-73
2022/12/13 03:23:53;;;;;;;43.43;17.93;;;;;;;2.46;57.50;101327.91;5053056;28;20051;-73
2022/12/13 03:26:26;;;;;;;32.60;17.80;;;;;;;2.32;59.23;101333.84;5052368;28;20037;-73
2022/12/13 03:28:51;;;;;;;36.73;18.70;;;;;;;2.32;59.32;101333.84;5053226;28;20029;-72
2022/12/13 03:31:17;;;;;;;39.30;19.73;;;;;;;2.36;58.27;101333.34;5063515;28;20046;-75
2022/12/13 03:33:42;;;;;;;35.37;17.83;;;;;;;2.46;58.23;101331.41;5072818;28;20514;-73
2022/12/13 03:36:09;;;;;;;36.57;18.37;;;;;;;2.45;58.24;101328.91;5053980;28;20047;-75
2022/12/13 03:38:35;;;;;;;31.27;18.07;;;;;;;2.37;59.63;101332.38;5054265;28;20048;-74
2022/12/13 03:41:04;;;;;;;35.83;17.67;;;;;;;2.50;58.60;101335.41;5065974;28;20036;-74
2022/12/13 03:43:30;;;;;;;41.37;18.13;;;;;;;2.44;59.14;101335.19;5072471;28;20113;-73
2022/12/13 03:45:55;;;;;;;60.33;19.30;;;;;;;2.31;60.56;101334.84;5073123;28;20027;-74
2022/12/13 03:48:22;;;;;;;50.57;19.63;;;;;;;2.32;59.96;101337.31;5053533;28;20040;-73
2022/12/13 03:50:47;;;;;;;47.60;18.23;;;;;;;2.48;59.93;101339.19;5072770;28;20038;-72
2022/12/13 03:53:13;;;;;;;82.93;19.53;;;;;;;2.43;60.30;101333.56;5072243;28;20058;-73
2022/12/13 03:55:38;;;;;;;109.80;19.67;;;;;;;2.64;60.01;101331.28;5056829;28;20068;-72
2022/12/13 03:58:03;;;;;;;62.17;18.50;;;;;;;2.72;58.57;101331.31;5052989;28;20061;-74
2022/12/13 04:00:29;;;;;;;100.63;19.17;;;;;;;2.62;59.73;101327.97;5034362;28;20504;-72
2022/12/13 04:02:55;;;;;;;70.43;20.07;;;;;;;2.63;58.80;101322.50;5052379;28;20032;-73
2022/12/13 04:05:20;;;;;;;67.93;18.20;;;;;;;2.49;59.74;101325.78;5052395;28;20037;-73
2022/12/13 04:07:45;;;;;;;63.77;17.63;;;;;;;2.63;59.40;101321.69;5052447;28;20033;-73
2022/12/13 04:10:11;;;;;;;53.17;17.57;;;;;;;2.36;60.56;101322.75;5053234;28;20037;-74
2022/12/13 04:15:20;;;;;;;69.67;17.20;;;;;;;2.47;59.69;101314.50;5052636;28;20043;-74
2022/12/13 04:17:45;;;;;;;102.53;18.40;;;;;;;2.61;59.22;101308.56;5033523;28;20123;-74
2022/12/13 04:20:11;;;;;;;57.53;18.30;;;;;;;2.61;59.16;101313.06;5052537;28;20512;-73
2022/12/13 04:22:36;;;;;;;58.63;17.90;;;;;;;2.75;58.73;101309.78;5052361;28;20104;-74
2022/12/13 04:25:03;;;;;;;83.70;18.70;;;;;;;2.53;59.64;101310.38;5052573;28;20548;-74
2022/12/13 04:27:28;;;;;;;59.53;18.10;;;;;;;2.58;58.95;101306.25;5052153;28;20105;-74
2022/12/13 04:29:53;;;;;;;59.30;19.03;;;;;;;2.66;58.51;101305.44;5051941;28;20049;-75
2022/12/13 04:32:19;;;;;;;53.97;17.47;;;;;;;2.52;59.23;101308.72;5070917;28;20051;-74
2022/12/13 04:34:44;;;;;;;31.07;16.13;;;;;;;2.60;59.04;101298.97;5072033;28;20104;-75
2022/12/13 04:37:09;;;;;;;52.90;17.60;;;;;;;2.44;59.74;101298.06;5072884;28;20036;-74
2022/12/13 04:39:35;;;;;;;30.30;15.83;;;;;;;2.48;60.53;101302.06;5072380;28;20052;-73
2022/12/13 04:42:00;;;;;;;37.83;16.67;;;;;;;2.53;59.27;101305.91;5072486;28;20115;-74
2022/12/13 04:44:26;;;;;;;39.57;18.50;;;;;;;2.59;59.26;101297.28;5050096;28;20524;-75
2022/12/13 04:46:51;;;;;;;56.47;18.13;;;;;;;2.61;58.50;101295.28;5051827;28;20033;-74
2022/12/13 04:49:17;;;;;;;48.53;17.10;;;;;;;2.41;59.51;101293.94;5052364;28;20212;-74
2022/12/13 04:51:42;;;;;;;71.80;18.60;;;;;;;2.18;60.93;101286.75;5054503;28;20029;-74
2022/12/13 04:54:07;;;;;;;48.93;19.20;;;;;;;2.12;61.46;101290.03;5051728;28;20029;-75
2022/12/13 04:56:33;;;;;;;45.57;18.33;;;;;;;2.55;59.84;101292.47;5052096;28;20500;-75
2022/12/13 04:58:58;;;;;;;67.07;18.43;;;;;;;2.54;59.93;101294.28;5062779;28;20488;-75
2022/12/13 05:01:23;;;;;;;68.63;18.43;;;;;;;2.71;58.98;101297.00;5073835;28;20110;-72
2022/12/13 05:03:49;;;;;;;44.07;18.03;;;;;;;2.63;59.64;101298.63;5076410;28;20048;-73
2022/12/13 05:06:14;;;;;;;58.97;20.13;;;;;;;2.78;59.10;101290.03;5075343;28;20124;-75
2022/12/13 05:08:40;;;;;;;88.23;20.40;;;;;;;2.75;59.72;101296.50;5065143;28;20040;-73
2022/12/13 05:11:07;;;;;;;45.17;18.43;;;;;;;2.85;59.08;101291.06;5075137;28;20044;-73
2022/12/13 05:13:34;;;;;;;45.43;18.30;;;;;;;2.76;59.26;101289.34;5075501;28;20135;-75
2022/12/13 05:16:01;;;;;;;47.90;17.80;;;;;;;2.42;60.32;101287.63;5075736;28;20060;-73
2022/12/13 05:18:28;;;;;;;35.60;18.43;;;;;;;2.90;58.65;101286.91;5075748;28;20040;-74
2022/12/13 05:20:54;;;;;;;57.13;19.27;;;;;;;2.84;58.79;101281.41;5075602;28;20055;-75
2022/12/13 05:23:22;;;;;;;63.63;20.40;;;;;;;2.76;59.70;101284.06;5075326;28;20041;-73
2022/12/13 05:25:47;;;;;;;35.17;17.67;;;;;;;2.85;58.64;101283.91;5075137;28;20068;-74
2022/12/13 05:28:13;;;;;;;37.57;21.30;;;;;;;2.79;59.40;101287.19;5076141;28;20039;-73
2022/12/13 05:30:39;;;;;;;39.63;19.50;;;;;;;2.77;58.93;101288.38;5075288;28;20511;-74
2022/12/13 05:33:04;;;;;;;42.73;20.93;;;;;;;2.80;58.55;101288.03;5075239;28;20496;-76
2022/12/13 05:35:30;;;;;;;58.50;23.10;;;;;;;2.46;60.24;101290.78;5075222;28;20039;-76
2022/12/13 05:37:55;;;;;;;39.80;20.23;;;;;;;2.70;59.42;101293.50;5075595;28;20025;-73
2022/12/13 05:40:30;;;;;;;46.27;21.87;;;;;;;2.65;59.21;101282.56;5067237;28;20123;-72
2022/12/13 05:42:56;;;;;;;37.67;20.37;;;;;;;2.47;59.90;101280.03;5075541;28;20460;-74
2022/12/13 05:45:21;;;;;;;43.40;21.87;;;;;;;2.53;59.92;101274.09;5075698;28;20039;-74
2022/12/13 05:47:47;;;;;;;43.77;23.00;;;;;;;2.53;60.06;101273.25;5067061;28;20082;-74
2022/12/13 05:50:14;;;;;;;42.10;22.00;;;;;;;2.54;59.21;101266.94;5074522;28;20040;-75
2022/12/13 05:52:39;;;;;;;51.50;22.83;;;;;;;2.60;59.08;101267.13;5048302;28;20499;-74
2022/12/13 05:55:05;;;;;;;48.90;24.03;;;;;;;2.44;59.73;101269.75;5074558;28;20033;-75
2022/12/13 05:57:31;;;;;;;42.40;21.50;;;;;;;2.63;59.34;101264.13;5074672;28;20029;-76
2022/12/13 05:59:56;;;;;;;47.63;22.67;;;;;;;2.38;59.75;101261.59;5074263;28;20040;-75
2022/12/13 06:02:22;;;;;;;52.70;24.67;;;;;;;2.55;59.80;101269.44;5046041;28;20033;-75
2022/12/13 06:04:47;;;;;;;49.00;23.00;;;;;;;2.68;58.97;101263.66;5073138;28;20036;-75
2022/12/13 06:07:13;;;;;;;51.40;23.47;;;;;;;2.87;59.10;101260.69;5075139;28;20040;-74
2022/12/13 06:09:38;;;;;;;49.13;24.80;;;;;;;2.87;58.88;101258.03;5072028;28;20096;-75
2022/12/13 06:12:04;;;;;;;63.27;24.43;;;;;;;3.06;58.72;101267.50;5074022;28;20135;-75
2022/12/13 06:14:29;;;;;;;64.27;24.77;;;;;;;2.86;58.93;101269.66;5071728;28;20036;-74
2022/12/13 06:16:55;;;;;;;56.07;24.10;;;;;;;2.98;58.33;101263.03;5072984;28;20488;-72
2022/12/13 06:19:21;;;;;;;47.87;23.73;;;;;;;2.86;59.30;101266.16;5074246;28;20388;-74
2022/12/13 06:21:48;;;;;;;52.07;23.87;;;;;;;2.88;58.65;101262.34;5075074;28;20040;-73
2022/12/13 06:24:15;;;;;;;54.13;24.00;;;;;;;2.82;58.19;101264.81;5074364;28;20177;-73
2022/12/13 06:26:40;;;;;;;46.17;23.63;;;;;;;2.73;58.50;101265.81;5065680;28;20078;-76
2022/12/13 06:29:06;;;;;;;51.70;24.33;;;;;;;2.70;57.91;101261.66;5071585;28;20501;-74
2022/12/13 06:31:31;;;;;;;50.63;24.23;;;;;;;2.52;58.65;101268.91;5074243;28;20028;-73
2022/12/13 06:34:02;;;;;;;53.23;23.77;;;;;;;2.50;58.53;101268.25;5061430;28;20067;-75
2022/12/13 06:36:27;;;;;;;40.97;21.55;;;;;;;2.52;58.41;101275.06;5074788;28;20040;-77
2022/12/13 06:38:53;;;;;;;44.33;22.37;;;;;;;2.40;58.62;101273.72;5073268;28;20054;-75
2022/12/13 06:41:18;;;;;;;45.60;22.23;;;;;;;2.27;58.36;101273.34;5069718;28;20059;-76
2022/12/13 06:43:45;;;;;;;44.07;21.00;;;;;;;2.19;59.71;101270.66;5071658;28;20037;-74
2022/12/13 06:46:11;;;;;;;47.83;20.93;;;;;;;2.29;58.85;101273.19;5073828;28;20123;-73
2022/12/13 06:48:36;;;;;;;45.93;22.27;;;;;;;1.95;60.18;101272.38;5074061;28;20115;-74
2022/12/13 06:51:05;;;;;;;50.70;22.23;;;;;;;2.22;59.62;101272.19;5074178;28;20500;-73
2022/12/13 06:53:31;;;;;;;48.57;21.87;;;;;;;2.44;58.49;101271.56;5072828;28;20036;-74
2022/12/13 06:56:01;;;;;;;45.80;22.23;;;;;;;2.46;58.23;101275.72;5073698;28;20373;-73
2022/12/13 06:58:26;;;;;;;46.97;22.43;;;;;;;2.50;57.33;101270.91;5068576;28;20483;-74
2022/12/13 07:01:04;;;;;;;42.53;23.00;;;;;;;2.37;57.50;101283.81;5070655;28;20052;-74
2022/12/13 07:03:30;;;;;;;39.97;20.20;;;;;;;2.38;57.44;101275.69;5073604;28;20039;-75
2022/12/13 07:05:56;;;;;;;42.97;22.50;;;;;;;2.41;57.49;101277.19;5073980;28;20028;-75
2022/12/13 07:08:21;;;;;;;43.17;21.93;;;;;;;2.21;58.16;101283.75;5073861;28;20035;-74
2022/12/13 07:10:46;;;;;;;40.67;22.57;;;;;;;2.29;57.93;101289.09;5067959;28;20040;-74
2022/12/13 07:13:12;;;;;;;48.77;22.87;;;;;;;2.16;57.95;101288.72;5074086;28;20233;-76
2022/12/13 07:15:38;;;;;;;43.37;21.83;;;;;;;2.19;57.61;101289.22;5070629;28;20076;-77
2022/12/13 07:18:03;;;;;;;48.07;22.83;;;;;;;2.17;57.61;101283.25;5071179;28;20064;-74
2022/12/13 07:20:29;;;;;;;42.27;22.77;;;;;;;2.00;57.79;101280.69;5073433;28;20087;-73
2022/12/13 07:22:55;;;;;;;45.40;22.40;;;;;;;1.97;58.42;101289.78;5058773;28;20081;-74
2022/12/13 07:25:21;;;;;;;46.67;23.43;;;;;;;2.07;57.48;101285.19;5062837;28;20091;-73
2022/12/13 07:27:47;;;;;;;42.70;23.10;;;;;;;2.08;57.28;101283.38;5049943;28;20029;-75
2022/12/13 07:30:13;;;;;;;46.87;21.67;;;;;;;2.06;57.51;101291.50;5073017;28;20043;-74
2022/12/13 07:32:38;;;;;;;48.33;23.23;;;;;;;1.91;58.25;101289.59;5071120;28;20408;-75
2022/12/13 07:35:03;;;;;;;43.13;22.97;;;;;;;2.07;56.68;101287.84;5073701;28;20189;-74
2022/12/13 07:37:29;;;;;;;48.37;21.50;;;;;;;2.04;57.39;101292.63;5074108;28;20039;-74
2022/12/13 07:39:54;;;;;;;46.70;22.20;;;;;;;2.05;57.17;101296.94;5064104;28;20183;-75
2022/12/13 07:42:20;;;;;;;53.73;22.27;;;;;;;2.05;56.95;101291.63;5054633;28;20043;-75
2022/12/13 07:44:45;;;;;;;44.30;22.00;;;;;;;2.00;57.60;101293.94;5073452;28;20040;-76
2022/12/13 07:47:11;;;;;;;47.07;23.30;;;;;;;1.82;57.56;101294.03;5073777;28;20039;-74
2022/12/13 07:49:37;;;;;;;51.67;23.33;;;;;;;1.98;56.90;101302.06;5073989;28;20029;-75
2022/12/13 07:52:02;;;;;;;50.37;22.73;;;;;;;2.19;56.47;101299.81;5073718;28;20032;-75
2022/12/13 07:54:28;;;;;;;55.23;22.47;;;;;;;2.05;56.42;101304.88;5073610;28;20573;-75
2022/12/13 07:56:53;;;;;;;48.33;22.50;;;;;;;2.19;56.69;101305.13;5073340;28;20033;-76
2022/12/13 07:59:18;;;;;;;45.63;23.00;;;;;;;1.44;57.23;101308.50;5073345;28;20520;-74
2022/12/13 08:01:44;;;;;;;51.47;21.87;;;;;;;1.75;56.84;101315.00;5071311;28;20040;-75
2022/12/13 08:04:09;;;;;;;48.03;21.93;;;;;;;1.68;57.46;101313.13;5073066;28;20063;-73
2022/12/13 08:06:37;;;;;;;48.23;22.77;;;;;;;1.31;58.00;101309.91;5073094;28;20043;-75
2022/12/13 08:09:04;;;;;;;43.10;20.67;;;;;;;1.63;57.34;101318.91;5072935;28;20051;-75
2022/12/13 08:11:30;;;;;;;41.60;21.40;;;;;;;1.56;57.41;101317.03;5073399;28;20564;-75
2022/12/13 08:13:55;;;;;;;43.37;20.80;;;;;;;1.66;57.24;101323.91;5073358;28;20024;-75
2022/12/13 08:16:21;;;;;;;41.80;21.43;;;;;;;1.88;56.12;101321.69;5072378;28;20071;-74
2022/12/13 08:18:46;;;;;;;46.97;23.87;;;;;;;1.98;56.03;101317.97;5073549;28;20028;-74
2022/12/13 08:21:12;;;;;;;47.17;23.43;;;;;;;1.90;56.44;101315.25;5072360;28;20503;-75
2022/12/13 08:23:37;;;;;;;43.47;22.13;;;;;;;1.89;56.10;101321.53;5072533;28;20029;-75
2022/12/13 08:26:04;;;;;;;35.37;20.37;;;;;;;1.94;55.74;101324.56;5072304;28;20047;-73
2022/12/13 08:28:31;;;;;;;42.87;21.20;;;;;;;1.88;56.20;101322.53;5073340;28;20119;-75
2022/12/13 08:31:05;;;;;;;45.27;21.73;;;;;;;1.96;56.54;101314.63;5073044;28;20036;-76
2022/12/13 08:33:33;;;;;;;42.90;23.50;;;;;;;2.04;56.91;101321.78;5056029;28;20439;-76
2022/12/13 08:36:06;;;;;;;40.50;20.83;;;;;;;2.12;56.75;101329.78;5050354;28;20483;-74
2022/12/13 08:38:32;;;;;;;41.77;22.43;;;;;;;2.07;56.83;101335.56;5052592;28;20044;-77
2022/12/13 08:40:57;;;;;;;48.27;23.33;;;;;;;2.15;57.30;101332.09;5052424;28;20057;-74
2022/12/13 08:43:24;;;;;;;45.73;22.63;;;;;;;2.27;57.44;101336.13;5052441;28;20028;-73
2022/12/13 08:45:49;;;;;;;51.63;23.23;;;;;;;2.29;57.43;101337.66;5052782;28;20043;-76
2022/12/13 08:48:14;;;;;;;44.40;22.33;;;;;;;2.36;57.85;101337.84;5051861;28;20105;-75
2022/12/13 08:50:40;;;;;;;43.47;23.70;;;;;;;2.49;57.15;101344.38;5050772;28;20116;-75
2022/12/13 08:53:05;;;;;;;46.90;23.93;;;;;;;2.57;57.14;101338.25;5052617;28;20033;-75
2022/12/13 08:55:30;;;;;;;41.83;23.63;;;;;;;2.70;56.95;101341.25;5050661;28;20047;-75
2022/12/13 08:57:56;;;;;;;42.30;23.47;;;;;;;2.76;57.43;101326.50;5052639;28;20056;-75
2022/12/13 09:00:21;;;;;;;47.70;24.07;;;;;;;2.77;56.86;101336.97;5052225;28;20121;-77
2022/12/13 09:02:47;;;;;;;53.80;24.20;;;;;;;2.84;56.89;101334.47;5048841;28;20136;-76
2022/12/13 09:05:12;;;;;;;55.53;25.27;;;;;;;2.83;57.10;101343.44;5068199;28;20037;-75
2022/12/13 09:07:39;;;;;;;54.30;25.77;;;;;;;2.67;57.90;101345.06;5048748;28;20067;-75
2022/12/13 09:10:06;;;;;;;45.03;23.93;;;;;;;2.85;57.41;101336.97;5068822;28;20037;-74
2022/12/13 09:12:31;;;;;;;46.63;24.07;;;;;;;2.88;58.02;101343.78;5068435;28;20695;-74
2022/12/13 09:14:57;;;;;;;46.40;22.90;;;;;;;2.83;57.84;101340.81;5068270;28;20120;-74
2022/12/13 09:17:22;;;;;;;51.73;24.07;;;;;;;2.96;57.92;101341.97;5048545;28;20045;-76
2022/12/13 09:19:47;;;;;;;50.77;24.63;;;;;;;3.09;57.60;101336.19;5047817;28;20051;-75
2022/12/13 09:22:13;;;;;;;47.30;23.30;;;;;;;3.18;57.40;101337.84;5048836;28;20118;-75
2022/12/13 09:24:38;;;;;;;54.83;25.67;;;;;;;3.03;58.58;101345.63;5047901;28;20075;-75
2022/12/13 09:27:04;;;;;;;53.13;25.00;;;;;;;3.11;58.62;101337.69;5047430;28;20041;-77
2022/12/13 09:29:32;;;;;;;55.47;25.13;;;;;;;3.27;58.31;101336.84;5061734;28;20036;-74
2022/12/13 09:31:57;;;;;;;54.40;25.80;;;;;;;3.34;57.68;101328.06;5064302;28;20056;-76
2022/12/13 09:34:22;;;;;;;47.47;26.83;;;;;;;3.43;57.17;101337.69;5068047;28;20506;-75
2022/12/13 09:36:48;;;;;;;54.23;27.30;;;;;;;3.51;57.86;101339.50;5067808;28;20048;-74
2022/12/13 09:39:14;;;;;;;53.67;25.30;;;;;;;3.55;57.34;101336.38;5067349;28;20025;-74
2022/12/13 09:41:45;;;;;;;58.27;26.97;;;;;;;3.59;56.99;101344.81;5067223;28;20048;-75
2022/12/13 09:44:19;;;;;;;50.10;24.85;;;;;;;3.70;57.29;101339.16;5067158;28;20111;-76
2022/12/13 09:46:47;;;;;;;52.17;25.73;;;;;;;3.72;56.86;101344.28;5071116;28;20490;-75
2022/12/13 09:49:25;;;;;;;60.20;28.63;;;;;;;3.88;57.36;101334.47;5072399;28;20025;-75
2022/12/13 09:51:53;;;;;;;51.30;27.10;;;;;;;3.87;56.92;101334.66;5053063;28;20044;-75
2022/12/13 09:54:22;;;;;;;58.50;28.87;;;;;;;3.84;57.28;101335.81;5071753;28;20273;-75
2022/12/13 09:56:52;;;;;;;56.57;28.60;;;;;;;3.92;56.79;101334.94;5061062;28;20518;-74
2022/12/13 09:59:27;;;;;;;52.57;27.23;;;;;;;3.77;58.06;101334.00;5071872;28;20033;-76
2022/12/13 10:01:54;;;;;;;56.67;27.40;;;;;;;3.92;58.15;101330.47;5071320;28;20040;-76
2022/12/13 10:04:20;;;;;;;53.83;28.27;;;;;;;4.08;57.78;101330.44;5071779;28;20470;-75
2022/12/13 10:06:46;;;;;;;57.97;30.60;;;;;;;4.21;56.82;101324.56;5072216;28;20062;-75
2022/12/13 10:09:13;;;;;;;61.17;27.77;;;;;;;4.18;56.92;101320.44;5054259;28;20045;-75
2022/12/13 10:11:52;;;;;;;57.33;29.27;;;;;;;4.25;57.34;101316.06;5070882;28;20032;-75
2022/12/13 10:14:32;;;;;;;58.83;29.10;;;;;;;4.20;57.27;101309.59;5071340;28;20024;-75
2022/12/13 10:17:02;;;;;;;60.20;29.20;;;;;;;4.26;57.27;101317.75;5063496;28;20064;-75
2022/12/13 10:19:34;;;;;;;63.90;29.15;;;;;;;4.30;57.87;101305.72;5070615;28;20035;-76
2022/12/13 10:22:02;;;;;;;65.70;29.37;;;;;;;4.30;57.98;101300.41;5071123;28;20044;-76
2022/12/13 10:24:45;;;;;;;62.00;31.83;;;;;;;4.38;57.27;101292.38;5071015;28;20432;-73
2022/12/13 10:27:13;;;;;;;57.50;29.73;;;;;;;4.43;57.16;101290.06;5070374;28;20059;-75
2022/12/13 10:30:23;;;;;;;61.93;30.00;;;;;;;4.42;57.46;101298.22;5052460;28;20108;-74
2022/12/13 10:32:58;;;;;;;57.93;29.73;;;;;;;4.30;58.37;101287.09;5010495;28;20038;-75
2022/12/13 10:35:27;;;;;;;60.27;28.70;;;;;;;4.57;57.88;101284.97;5017223;28;20041;-76
2022/12/13 10:37:54;;;;;;;54.73;30.40;;;;;;;4.66;57.00;101287.41;5010636;28;20064;-75
2022/12/13 10:40:24;;;;;;;64.27;33.13;;;;;;;4.74;57.58;101290.03;5016698;28;20061;-74
2022/12/13 10:43:22;;;;;;;59.08;31.30;;;;;;;4.79;57.59;101287.69;4992232;28;20050;-75
2022/12/13 10:45:56;;;;;;;67.23;32.43;;;;;;;4.82;57.74;101279.31;4968959;28;20050;-75
2022/12/13 10:48:49;;;;;;;60.30;30.90;;;;;;;4.89;57.46;101285.63;4968020;28;20066;-76
2022/12/13 10:51:20;;;;;;;70.63;32.63;;;;;;;4.91;57.79;101288.09;4911350;29;20048;-75
2022/12/13 10:53:49;;;;;;;;;;;;;;;5.13;57.33;101287.25;4912049;29;20151;-76
2022/12/13 10:56:19;;;;;;;61.07;29.70;;;;;;;5.03;57.95;101284.00;4909992;29;20486;-74
2022/12/13 10:58:46;;;;;;;70.43;31.25;;;;;;;4.88;58.96;101281.28;4917389;29;20099;-73
2022/12/13 11:01:17;;;;;;;63.80;32.53;;;;;;;5.11;57.96;101276.75;4931094;29;20036;-75
2022/12/13 11:03:54;;;;;;;;;;;;;;;5.24;58.21;101273.50;4952680;28;20042;-76
2022/12/13 11:06:19;;;;;;;65.50;30.67;;;;;;;5.32;58.16;101262.78;4968596;28;19945;-74
2022/12/13 11:08:45;;;;;;;64.67;33.17;;;;;;;5.26;58.24;101261.66;4967871;28;20474;-76
2022/12/13 11:11:11;;;;;;;64.67;33.97;;;;;;;5.31;57.90;101256.63;4968435;28;20204;-74
2022/12/13 11:13:51;;;;;;;80.13;34.70;;;;;;;5.43;58.19;101253.50;4967414;28;20073;-75
2022/12/13 11:16:22;;;;;;;72.33;35.37;;;;;;;4.86;60.26;101256.66;4967663;28;20276;-75
2022/12/13 11:18:54;;;;;;;72.70;37.17;;;;;;;5.33;58.71;101243.09;4951497;28;20507;-76
2022/12/13 11:21:25;;;;;;;75.53;36.70;;;;;;;5.07;59.84;101240.84;4972923;28;20042;-76
2022/12/13 11:23:53;;;;;;;75.47;36.83;;;;;;;4.88;60.68;101241.34;5007197;28;20046;-74
2022/12/13 11:26:22;;;;;;;80.40;36.17;;;;;;;5.35;58.69;101249.91;5025687;28;20107;-75